createdAt,value
2019-03-28T00:01:34.420Z,4.56
2019-03-28T00:06:37.726Z,4.66
2019-03-28T00:11:41.028Z,4.47
2019-03-28T00:16:44.323Z,4.65
2019-03-28T00:21:47.615Z,4.62
2019-03-28T00:26:50.937Z,4.58
2019-03-28T00:31:54.211Z,4.57
2019-03-28T00:36:57.510Z,4.54
2019-03-28T00:42:00.793Z,4.51
2019-03-28T00:47:04.100Z,4.56
2019-03-28T00:52:07.391Z,4.54
2019-03-28T00:57:10.680Z,4.33
2019-03-28T01:02:13.986Z,4.50
2019-03-28T01:07:17.293Z,4.48
2019-03-28T01:12:20.600Z,4.40
2019-03-28T01:17:23.890Z,4.37
2019-03-28T01:22:27.201Z,4.46
2019-03-28T01:27:30.496Z,4.42
2019-03-28T01:32:33.793Z,4.40
2019-03-28T01:37:37.093Z,4.35
2019-03-28T01:42:40.395Z,4.34
2019-03-28T01:47:43.698Z,4.37
2019-03-28T01:52:47.362Z,4.29
2019-03-28T01:57:50.757Z,4.27
2019-03-28T02:02:54.048Z,4.26
2019-03-28T02:07:57.356Z,4.22
2019-03-28T02:13:00.652Z,4.26
2019-03-28T02:18:03.960Z,4.20
2019-03-28T02:23:07.245Z,4.20
2019-03-28T02:28:10.537Z,4.19
2019-03-28T02:33:13.834Z,4.19
2019-03-28T02:38:17.129Z,4.19
2019-03-28T02:43:20.443Z,4.17
2019-03-28T02:48:23.742Z,4.18
2019-03-28T02:53:27.035Z,4.16
2019-03-28T02:58:30.652Z,4.15
2019-03-28T03:03:33.880Z,4.16
2019-03-28T03:08:37.169Z,4.16
2019-03-28T03:13:40.481Z,3.92
2019-03-28T03:18:43.851Z,3.95
2019-03-28T03:23:47.157Z,3.99
2019-03-28T03:28:50.450Z,4.03
2019-03-28T03:33:53.737Z,4.01
2019-03-28T03:38:57.046Z,3.90
2019-03-28T03:44:00.374Z,3.99
2019-03-28T03:49:04.769Z,4.00
2019-03-28T03:54:08.144Z,3.80
2019-03-28T03:59:11.781Z,3.72
2019-03-28T04:04:15.223Z,3.74
2019-03-28T04:09:18.512Z,3.86
2019-03-28T04:14:21.836Z,3.93
2019-03-28T04:19:25.132Z,3.96
2019-03-28T04:24:28.425Z,3.92
2019-03-28T04:29:31.722Z,3.95
2019-03-28T04:34:35.142Z,3.96
2019-03-28T04:39:38.397Z,4.01
2019-03-28T04:44:41.708Z,3.92
2019-03-28T04:49:45.018Z,3.73
2019-03-28T04:54:48.308Z,3.67
2019-03-28T04:59:51.604Z,3.83
2019-03-28T05:04:54.913Z,3.68
2019-03-28T05:09:58.218Z,3.67
2019-03-28T05:15:01.508Z,3.68
2019-03-28T05:20:06.846Z,3.64
2019-03-28T05:25:10.207Z,3.62
2019-03-28T05:30:14.335Z,3.51
2019-03-28T05:35:17.630Z,3.76
2019-03-28T05:40:22.762Z,3.90
2019-03-28T05:45:25.930Z,3.97
2019-03-28T05:50:29.227Z,4.09
2019-03-28T05:55:32.521Z,4.18
2019-03-28T06:00:38.935Z,4.27
2019-03-28T06:05:40.840Z,4.38
2019-03-28T06:10:44.140Z,4.51
2019-03-28T06:15:47.430Z,4.60
2019-03-28T06:20:50.721Z,4.29
2019-03-28T06:25:54.086Z,4.66
2019-03-28T06:30:57.425Z,4.64
2019-03-28T06:36:02.207Z,4.71
2019-03-28T06:57:10.201Z,5.33
2019-03-28T07:02:13.520Z,5.22
2019-03-28T07:07:18.436Z,5.62
2019-03-28T07:12:21.887Z,5.61
2019-03-28T07:17:26.405Z,6.13
2019-03-28T07:22:29.730Z,6.71
2019-03-28T07:27:40.705Z,6.77
2019-03-28T07:32:43.964Z,6.49
2019-03-28T07:37:47.259Z,6.75
2019-03-28T07:42:50.549Z,7.00
2019-03-28T07:47:53.843Z,7.21
2019-03-28T07:52:57.224Z,7.76
2019-03-28T07:58:00.526Z,7.48
2019-03-28T08:03:03.845Z,6.45
2019-03-28T08:08:07.208Z,6.98
2019-03-28T08:13:10.583Z,6.86
2019-03-28T08:18:13.871Z,7.20
2019-03-28T08:23:17.183Z,7.88
2019-03-28T08:28:20.476Z,7.39
2019-03-28T08:33:23.771Z,8.39
2019-03-28T08:38:27.063Z,7.47
2019-03-28T08:43:30.361Z,8.69
2019-03-28T08:48:33.656Z,8.58
2019-03-28T08:53:36.950Z,8.45
2019-03-28T08:58:40.251Z,8.65
2019-03-28T09:03:43.540Z,8.93
2019-03-28T09:08:46.830Z,9.23
2019-03-28T09:13:50.140Z,9.26
2019-03-28T09:18:53.473Z,9.52
2019-03-28T09:23:56.772Z,9.75
2019-03-28T09:29:00.060Z,9.07
2019-03-28T09:34:03.360Z,10.53
2019-03-28T09:39:07.898Z,10.74
2019-03-28T09:44:11.197Z,10.46
2019-03-28T09:49:14.500Z,10.34
2019-03-28T09:54:17.798Z,9.63
2019-03-28T09:59:21.095Z,9.59
2019-03-28T10:04:24.389Z,9.74
2019-03-28T10:09:27.697Z,11.17
2019-03-28T10:14:31.002Z,10.81
2019-03-28T10:19:34.305Z,10.19
2019-03-28T10:24:37.599Z,10.36
2019-03-28T10:29:40.943Z,10.94
2019-03-28T10:34:44.237Z,12.16
2019-03-28T10:39:47.581Z,11.19
2019-03-28T10:44:50.915Z,12.06
2019-03-28T10:49:54.252Z,11.31
2019-03-28T10:54:57.579Z,11.85
2019-03-28T11:00:00.928Z,10.51
2019-03-28T11:05:05.405Z,11.18
2019-03-28T11:10:08.923Z,10.48
2019-03-28T11:15:12.404Z,10.40
2019-03-28T11:20:16.004Z,11.28
2019-03-28T11:25:19.340Z,10.92
2019-03-28T11:30:22.755Z,10.65
2019-03-28T11:35:26.092Z,10.79
2019-03-28T11:40:29.457Z,10.38
2019-03-28T11:45:32.796Z,10.44
2019-03-28T11:50:36.152Z,10.57
2019-03-28T11:55:39.480Z,10.80
2019-03-28T12:00:42.824Z,10.83
2019-03-28T12:05:46.161Z,10.74
2019-03-28T12:10:49.494Z,10.99
2019-03-28T12:15:52.822Z,10.93
2019-03-28T12:20:56.243Z,10.67
2019-03-28T12:25:59.630Z,10.54
2019-03-28T12:31:02.971Z,10.48
2019-03-28T12:36:06.306Z,10.78
2019-03-28T12:41:09.643Z,10.90
2019-03-28T12:46:12.975Z,11.17
2019-03-28T12:51:16.310Z,11.31
2019-03-28T12:56:19.664Z,11.43
2019-03-28T13:01:23.072Z,11.48
2019-03-28T13:06:26.419Z,11.44
2019-03-28T13:11:29.756Z,11.20
2019-03-28T13:16:33.093Z,11.66
2019-03-28T13:21:36.431Z,11.18
2019-03-28T13:26:39.772Z,11.30
2019-03-28T13:31:43.114Z,11.57
2019-03-28T13:36:46.446Z,11.50
2019-03-28T13:41:49.786Z,11.37
2019-03-28T13:46:53.124Z,11.53
2019-03-28T13:51:56.468Z,11.30
2019-03-28T13:56:59.801Z,11.26
2019-03-28T14:02:03.151Z,10.95
2019-03-28T14:07:06.473Z,11.00
2019-03-28T14:12:09.814Z,10.87
2019-03-28T14:17:13.150Z,10.75
2019-03-28T14:22:18.133Z,10.75
2019-03-28T14:27:21.717Z,11.17
2019-03-28T14:32:25.070Z,11.17
2019-03-28T14:37:28.494Z,11.38
2019-03-28T14:42:31.837Z,11.06
2019-03-28T14:47:35.236Z,10.74
2019-03-28T14:52:38.548Z,10.84
2019-03-28T14:57:41.863Z,10.82
2019-03-28T15:02:45.202Z,10.71
2019-03-28T15:07:48.548Z,10.73
2019-03-28T15:12:51.896Z,10.83
2019-03-28T15:17:55.234Z,10.76
2019-03-28T15:22:58.682Z,10.90
2019-03-28T15:28:02.040Z,10.86
2019-03-28T15:33:05.385Z,10.87
2019-03-28T15:38:08.805Z,11.02
2019-03-28T15:43:12.232Z,10.92
2019-03-28T15:48:15.586Z,10.96
2019-03-28T15:53:19.251Z,10.99
2019-03-28T15:58:23.840Z,11.10
2019-03-28T16:03:27.348Z,11.02
2019-03-28T16:08:30.722Z,10.92
2019-03-28T16:13:37.313Z,10.90
2019-03-28T16:18:39.621Z,10.84
2019-03-28T16:23:43.107Z,10.77
2019-03-28T16:28:46.537Z,10.72
2019-03-28T16:33:49.938Z,10.57
2019-03-28T16:38:53.291Z,10.48
2019-03-28T16:43:56.644Z,10.49
2019-03-28T16:49:00.008Z,10.50
2019-03-28T16:54:03.363Z,10.41
2019-03-28T16:59:06.722Z,10.39
2019-03-28T17:04:20.035Z,10.30
2019-03-28T17:09:15.231Z,10.29
2019-03-28T17:14:18.595Z,10.21
2019-03-28T17:19:22.952Z,10.08
2019-03-28T17:24:26.497Z,10.07
2019-03-28T17:29:29.850Z,9.99
2019-03-28T17:34:36.279Z,9.91
2019-03-28T17:39:38.282Z,9.84
2019-03-28T17:44:41.710Z,9.84
2019-03-28T17:49:45.118Z,9.79
2019-03-28T17:54:48.481Z,9.69
2019-03-28T17:59:51.833Z,9.68
2019-03-28T18:05:08.250Z,9.64
2019-03-28T18:10:00.392Z,9.62
2019-03-28T18:15:04.688Z,9.56
2019-03-28T18:20:08.391Z,9.53
2019-03-28T18:25:12.080Z,9.47
2019-03-28T18:30:18.006Z,9.45
2019-03-28T18:35:21.411Z,9.36
2019-03-28T18:40:25.763Z,9.35
2019-03-28T18:45:29.105Z,9.31
2019-03-28T18:50:32.593Z,9.23
2019-03-28T18:55:35.918Z,9.17
2019-03-28T19:00:39.277Z,9.14
2019-03-28T19:05:42.660Z,9.10
2019-03-28T19:10:46.075Z,9.07
2019-03-28T19:15:49.949Z,9.11
2019-03-28T19:20:53.470Z,9.06
2019-03-28T19:25:56.826Z,9.06
2019-03-28T19:31:00.225Z,9.04
2019-03-28T19:36:03.617Z,8.98
2019-03-28T19:41:07.909Z,8.97
2019-03-28T19:46:12.900Z,8.90
2019-03-28T19:51:16.661Z,8.89
2019-03-28T19:56:20.986Z,8.83
2019-03-28T20:01:24.836Z,8.85
2019-03-28T20:06:28.262Z,8.80
2019-03-28T20:11:32.134Z,8.79
2019-03-28T20:16:36.701Z,8.78
2019-03-28T20:21:40.231Z,8.69
2019-03-28T20:26:45.696Z,8.72
2019-03-28T20:31:49.413Z,8.63
2019-03-28T20:36:53.432Z,8.66
2019-03-28T20:41:56.944Z,8.60
2019-03-28T20:47:00.611Z,8.56
2019-03-28T20:52:04.203Z,8.52
2019-03-28T20:57:07.651Z,8.41
2019-03-28T21:02:11.459Z,8.31
2019-03-28T21:07:15.367Z,8.19
2019-03-28T21:12:18.841Z,8.14
2019-03-28T21:17:22.426Z,8.10
2019-03-28T21:22:25.782Z,7.95
2019-03-28T21:27:29.567Z,7.84
2019-03-28T21:32:32.953Z,7.75
2019-03-28T21:37:36.279Z,7.62
2019-03-28T21:42:39.594Z,7.51
2019-03-28T21:47:43.267Z,7.38
2019-03-28T21:52:46.577Z,7.28
2019-03-28T21:57:49.881Z,7.22
2019-03-28T22:02:53.792Z,7.19
2019-03-28T22:07:57.289Z,7.09
2019-03-28T22:13:00.940Z,6.98
2019-03-28T22:18:04.397Z,6.93
2019-03-28T22:23:08.617Z,6.82
2019-03-28T22:28:11.972Z,6.73
2019-03-28T22:33:15.895Z,6.68
2019-03-28T22:38:20.899Z,6.61
2019-03-28T22:43:24.485Z,6.49
2019-03-28T22:48:27.774Z,6.34
2019-03-28T22:53:32.900Z,6.22
2019-03-28T22:58:36.170Z,6.09
2019-03-28T23:03:39.457Z,5.96
2019-03-28T23:08:42.749Z,5.82
2019-03-28T23:13:46.050Z,5.76
2019-03-28T23:18:49.341Z,5.67
2019-03-28T23:23:52.629Z,5.58
2019-03-28T23:28:55.927Z,5.48
2019-03-28T23:33:59.215Z,5.39
2019-03-28T23:39:02.511Z,5.31
2019-03-28T23:44:05.803Z,5.01
2019-03-28T23:49:09.095Z,5.13
2019-03-28T23:54:12.460Z,5.22
2019-03-28T23:59:15.755Z,5.39
